Pomona, CA

2:12 PM PDT on August 27, 2014 (GMT -0700)
Canon Lane Station | Change Station
CLOSE
Current Station
Personal Weather Station
Location: Chino Hills, CA
Elevation: 1166 ft
Nearby Weather Stations

Elev 1166 ft 33.96 °N, 117.77 °W | Updated 1 minute ago

Clear
Clear
93.8 °F
Feels Like 92 °F
N
3.0
Wind Variable Wind from WNW
Gusts 3.0 mph

Today
High -- | Low -- °F
--% Chance of Precip.
Yesterday
High -- | Low -- °F
Precip. -- in
6:21 AM 7:23 PM
Waxing Crescent, 5% visible
Pressure 30.07 in
Visibility 10.0 miles
Clouds Clear
Heat Index 92 °F
Dew Point 55 °F
Humidity 27%
Rainfall 0.00 in
Snow Depth Not available.
UV 6.5 out of 12
Pollen 7.50 out of 12
Ozone Good
Flu Activity Not available.
METAR KPOC 271947Z 29007KT 10SM CLR 32/09 A3007

More Conditions Fewer Conditions

Pressure 30.07 in
Visibility 10.0 miles
Clouds Clear
Heat Index 92 °F
Dew Point 55 °F
Humidity 27%
Rainfall 0.00 in
Snow Depth Not available.
UV 6.5 out of 12
Pollen 7.50 out of 12
Ozone Good
Flu Activity Not available.
METAR KPOC 271947Z 29007KT 10SM CLR 32/09 A3007

More Conditions Fewer Conditions

10-Day Weather Forecast

Almanac

Astronomy

Aug. 27, 2014 Rise Set
Actual Time 6:21 AM PDT 7:23 PM PDT
Civil Twilight 5:55 AM PDT 7:49 PM PDT
Nautical Twilight 5:25 AM PDT 8:19 PM PDT
Astronomical Twilight 4:53 AM PDT 8:51 PM PDT
Moon 8:14 AM PDT 8:26 PM PDT
Length of Visible Light 13h 53m
Length of Day
13h 01m
Tomorrow will be 1m 59s shorter.
Waxing Crescent, 5% of the Moon is Illuminated
Today
Waxing Crescent
Sep 2
First Quarter
Sep 8
Full
Sep 15
Last Quarter
Sep 24
New

Today's Extremes

State Highs State Lows

Community

WunderPhotos

Upload Photos

1,747,789 photos uploaded!

Nearby

Air Quality

  Air Quality AQ Index Pollutant
Yesterday Good
OZONE
Current Good
OZONE
Thursday Good
PM10
Thursday Good
OZONE
Thursday Good
CO
Thursday Good
NO2

Snow Depth

Station Depth Elevation
Leavitt Lake 0 in 9400 ft
Leavitt Meadows 1 in 7200 ft
Summit Meadow 0 in 9122 ft
Fallen Leaf 0 in 6300 ft
Rubicon #2 0 in 7500 ft

Earthquake Activity

City Distance Mag. Time & Date
San Fernando, California 38 miles 2.5 4:57 AM PDT
2014-08-26
San Pedro, California 34 miles 3.2 7:50 PM PDT
2014-08-24
Minimum magnitude displayed is 2.5.

Coastal Water Temperatures

Place Temperature
Santa Monica Pier 72.0 °F
Los Angeles, CA 66.9 °F
La Jolla, CA 73.0 °F

Nearby Weather Stations